Time;durP1;ratioP1;P1;durP2;ratioP2;P2;SDS_P1;SDS_P2;PMS_P1;PMS_P2;Temp;Humidity;BMP_temperature;BMP_pressure;BME280_temperature;BME280_humidity;BME280_pressure;Samples;Min_cycle;Max_cycle;Signal;HPM_P1;HPM_P2
2023/08/31 00:00:45;;;;;;;3.63;3.07;;;15.10;99.90;;;;;;5031514;28;20458;-72
2023/08/31 00:03:12;;;;;;;3.17;2.50;;;15.10;99.90;;;;;;5030810;28;20204;-73
2023/08/31 00:05:41;;;;;;;3.60;2.43;;;15.20;99.90;;;;;;5028937;28;20458;-73
2023/08/31 00:08:07;;;;;;;3.00;2.57;;;15.20;99.90;;;;;;5026069;28;20474;-73
2023/08/31 00:10:36;;;;;;;3.87;3.43;;;15.00;99.90;;;;;;5030233;28;20466;-72
2023/08/31 00:13:02;;;;;;;3.17;2.43;;;14.90;99.90;;;;;;5032743;28;20223;-72
2023/08/31 00:15:29;;;;;;;5.70;5.13;;;14.90;99.90;;;;;;5029325;28;20559;-72
2023/08/31 00:17:55;;;;;;;3.43;2.93;;;14.90;99.90;;;;;;5030730;28;20458;-73
2023/08/31 00:20:21;;;;;;;3.50;3.03;;;14.70;99.90;;;;;;5059554;28;20580;-73
2023/08/31 00:22:48;;;;;;;3.73;3.07;;;14.50;99.90;;;;;;5025608;28;20477;-74
2023/08/31 00:25:13;;;;;;;3.53;3.23;;;14.50;99.90;;;;;;5030296;28;20995;-73
2023/08/31 00:27:40;;;;;;;3.20;2.90;;;14.60;99.90;;;;;;5044583;28;20485;-74
2023/08/31 00:30:11;;;;;;;3.50;2.90;;;14.80;99.90;;;;;;5057636;27;20256;-74
2023/08/31 00:32:36;;;;;;;4.60;3.07;;;14.80;99.90;;;;;;5044382;28;20461;-72
2023/08/31 00:35:03;;;;;;;3.10;2.80;;;14.90;99.90;;;;;;5013407;28;20509;-73
2023/08/31 00:37:29;;;;;;;3.60;3.30;;;15.00;99.90;;;;;;5026771;28;20586;-75
2023/08/31 00:39:55;;;;;;;3.67;3.37;;;14.80;99.90;;;;;;5016981;28;20787;-72
2023/08/31 00:42:21;;;;;;;4.53;2.87;;;14.80;99.90;;;;;;5043472;28;20229;-73
2023/08/31 00:44:47;;;;;;;3.20;2.73;;;14.70;99.90;;;;;;5025505;28;20232;-74
2023/08/31 00:47:17;;;;;;;3.43;3.03;;;14.80;99.90;;;;;;5042427;28;21021;-73
2023/08/31 00:49:43;;;;;;;3.07;2.77;;;14.70;99.90;;;;;;5028572;28;20343;-74
2023/08/31 00:52:09;;;;;;;4.73;3.77;;;14.70;99.90;;;;;;5059789;28;20482;-72
2023/08/31 00:54:35;;;;;;;4.37;3.20;;;14.60;99.90;;;;;;5040563;28;20696;-74
2023/08/31 00:57:01;;;;;;;5.00;2.60;;;14.60;99.90;;;;;;5029439;28;20516;-73
2023/08/31 00:59:27;;;;;;;4.90;3.50;;;14.60;99.90;;;;;;5027008;28;21136;-72
2023/08/31 01:02:16;;;;;;;3.03;2.77;;;14.50;99.90;;;;;;5027797;28;20552;-72
2023/08/31 01:04:48;;;;;;;3.37;3.07;;;14.50;99.90;;;;;;5040865;28;20246;-73
2023/08/31 01:07:40;;;;;;;3.57;3.10;;;14.50;99.90;;;;;;5028737;28;20895;-73
2023/08/31 01:10:24;;;;;;;5.90;2.67;;;14.50;99.90;;;;;;5028564;28;21074;-72
2023/08/31 01:12:55;;;;;;;4.47;3.27;;;14.40;99.90;;;;;;5040539;28;20511;-73
2023/08/31 01:15:21;;;;;;;4.20;3.37;;;14.20;99.90;;;;;;5025164;28;20484;-73
2023/08/31 01:17:54;;;;;;;4.10;2.77;;;14.10;99.90;;;;;;5029266;28;20469;-73
2023/08/31 01:20:32;;;;;;;4.17;3.57;;;14.10;99.90;;;;;;5029148;28;20546;-74
2023/08/31 01:23:05;;;;;;;3.43;3.03;;;14.00;99.90;;;;;;5030671;28;20581;-72
2023/08/31 01:25:32;;;;;;;4.73;3.70;;;14.00;99.90;;;;;;5027481;28;20470;-73
2023/08/31 01:27:59;;;;;;;4.87;3.60;;;13.90;99.90;;;;;;5028731;28;20913;-72
2023/08/31 01:30:25;;;;;;;3.07;2.67;;;14.00;99.90;;;;;;5039538;28;20502;-73
2023/08/31 01:32:50;;;;;;;4.00;2.87;;;14.10;99.90;;;;;;5040847;28;20450;-73
2023/08/31 01:35:18;;;;;;;3.33;3.03;;;14.20;99.90;;;;;;5029037;28;20236;-74
2023/08/31 01:37:51;;;;;;;3.53;2.83;;;14.40;99.90;;;;;;5040366;28;20534;-74
2023/08/31 01:40:23;;;;;;;3.80;3.07;;;14.50;99.90;;;;;;5028585;28;20478;-74
2023/08/31 01:42:50;;;;;;;4.73;3.23;;;14.50;99.90;;;;;;5026015;28;21200;-72
2023/08/31 01:45:20;;;;;;;2.90;2.60;;;14.50;99.90;;;;;;5029524;28;21038;-73
2023/08/31 01:47:47;;;;;;;2.83;2.63;;;14.60;99.90;;;;;;5040570;28;20587;-73
2023/08/31 01:50:13;;;;;;;3.90;2.90;;;14.60;99.90;;;;;;5041764;28;20475;-72
2023/08/31 01:52:39;;;;;;;5.00;2.87;;;14.50;99.90;;;;;;5027854;28;21094;-73
2023/08/31 01:55:06;;;;;;;3.30;2.83;;;14.40;99.90;;;;;;5028403;28;20481;-73
2023/08/31 01:57:32;;;;;;;5.70;3.70;;;14.30;99.90;;;;;;5041023;28;20318;-71
2023/08/31 02:00:11;;;;;;;3.83;3.50;;;14.20;99.90;;;;;;5039990;28;20970;-72
2023/08/31 02:02:43;;;;;;;5.80;3.57;;;14.20;99.90;;;;;;5029320;28;20551;-73
2023/08/31 02:05:09;;;;;;;3.40;3.10;;;14.20;99.90;;;;;;5056242;28;20470;-73
2023/08/31 02:07:35;;;;;;;4.37;3.07;;;14.30;99.90;;;;;;5026569;28;20800;-73
2023/08/31 02:10:02;;;;;;;4.70;3.60;;;14.40;99.90;;;;;;5040709;28;20466;-73
2023/08/31 02:12:27;;;;;;;3.57;3.27;;;14.60;99.90;;;;;;5058099;28;20985;-73
2023/08/31 02:14:53;;;;;;;3.90;3.03;;;14.70;99.90;;;;;;5010096;28;20466;-72
2023/08/31 02:17:19;;;;;;;7.30;3.47;;;14.60;99.90;;;;;;5028228;28;20216;-73
2023/08/31 02:19:45;;;;;;;4.57;3.40;;;14.50;99.90;;;;;;5023781;28;20796;-72
2023/08/31 02:22:10;;;;;;;3.63;3.00;;;14.60;99.90;;;;;;5041309;28;20219;-73
2023/08/31 02:24:36;;;;;;;2.90;2.30;;;14.60;99.90;;;;;;5053806;28;20604;-73
2023/08/31 02:27:02;;;;;;;5.30;3.20;;;14.60;99.90;;;;;;5028902;28;20228;-73
2023/08/31 02:29:27;;;;;;;3.27;2.90;;;14.60;99.90;;;;;;5041519;28;20228;-73
2023/08/31 02:31:53;;;;;;;3.40;3.10;;;14.60;99.90;;;;;;5026558;28;20718;-72
2023/08/31 02:34:19;;;;;;;2.83;2.50;;;14.50;99.90;;;;;;5029621;28;20792;-74
2023/08/31 02:36:45;;;;;;;3.60;3.30;;;14.40;99.90;;;;;;5025808;28;20254;-73
2023/08/31 02:39:10;;;;;;;3.67;3.30;;;14.30;99.90;;;;;;5057397;28;20324;-72
2023/08/31 02:41:36;;;;;;;4.33;3.30;;;14.20;99.90;;;;;;5027584;28;20258;-73
2023/08/31 02:44:04;;;;;;;3.37;3.07;;;14.20;99.90;;;;;;5026382;28;20230;-75
2023/08/31 02:46:31;;;;;;;3.73;3.43;;;14.10;99.90;;;;;;5058095;28;20458;-73
2023/08/31 02:48:56;;;;;;;3.97;3.10;;;14.20;99.90;;;;;;5011030;28;20469;-73
2023/08/31 02:51:22;;;;;;;3.73;2.93;;;14.30;99.90;;;;;;5041319;28;20227;-73
2023/08/31 02:53:48;;;;;;;3.97;3.57;;;14.40;99.90;;;;;;5000864;28;20251;-71
2023/08/31 02:56:14;;;;;;;4.77;3.23;;;14.50;99.90;;;;;;5018022;28;20212;-73
2023/08/31 02:58:40;;;;;;;2.87;2.67;;;14.60;99.90;;;;;;5016775;28;20652;-72
2023/08/31 03:01:13;;;;;;;4.17;2.80;;;14.60;99.90;;;;;;5014402;28;20252;-72
2023/08/31 03:03:42;;;;;;;4.30;2.67;;;14.70;99.90;;;;;;5033062;28;20321;-70
2023/08/31 03:06:09;;;;;;;5.77;3.50;;;14.70;99.90;;;;;;5020253;28;20554;-72
2023/08/31 03:08:36;;;;;;;3.00;2.80;;;14.70;99.90;;;;;;5047988;28;20520;-72
2023/08/31 03:11:03;;;;;;;3.50;3.20;;;14.60;99.90;;;;;;5049989;28;20470;-72
2023/08/31 03:13:28;;;;;;;3.60;3.03;;;14.50;99.90;;;;;;5051857;28;20485;-74
2023/08/31 03:15:56;;;;;;;3.90;2.90;;;14.50;99.90;;;;;;5030476;28;20489;-73
2023/08/31 03:18:23;;;;;;;4.03;3.17;;;14.60;99.90;;;;;;5016456;28;20239;-73
2023/08/31 03:20:49;;;;;;;3.60;3.07;;;14.60;99.90;;;;;;5030830;28;20458;-73
2023/08/31 03:23:15;;;;;;;4.40;4.00;;;14.60;99.90;;;;;;5004567;28;20293;-73
2023/08/31 03:25:41;;;;;;;4.53;3.10;;;14.50;99.90;;;;;;5015254;28;20482;-73
2023/08/31 03:28:08;;;;;;;3.20;2.90;;;14.40;99.90;;;;;;5037716;28;20318;-73
2023/08/31 03:30:34;;;;;;;3.00;2.77;;;14.20;99.90;;;;;;5031229;28;20476;-74
2023/08/31 03:32:59;;;;;;;3.23;2.93;;;14.20;99.90;;;;;;5021362;28;20531;-72
2023/08/31 03:35:28;;;;;;;3.73;3.37;;;14.30;99.90;;;;;;5023054;28;20220;-73
2023/08/31 03:37:57;;;;;;;3.30;3.00;;;14.20;99.90;;;;;;5019064;28;20226;-73
2023/08/31 03:40:22;;;;;;;5.10;3.80;;;14.20;99.90;;;;;;5022807;28;20474;-73
2023/08/31 03:42:50;;;;;;;4.13;3.47;;;14.20;99.90;;;;;;5003007;28;20286;-71
2023/08/31 03:45:16;;;;;;;3.70;3.40;;;14.00;99.90;;;;;;5025967;28;20490;-73
2023/08/31 03:47:41;;;;;;;5.13;4.03;;;13.70;99.90;;;;;;5009325;28;20470;-73
2023/08/31 03:50:08;;;;;;;4.87;3.90;;;13.60;99.90;;;;;;5037877;28;20223;-73
2023/08/31 03:52:34;;;;;;;5.00;3.63;;;13.60;99.90;;;;;;5021304;28;20228;-74
2023/08/31 03:55:00;;;;;;;4.40;3.70;;;13.60;99.90;;;;;;5052226;28;20822;-75
2023/08/31 03:57:26;;;;;;;4.10;3.80;;;13.50;99.90;;;;;;5037880;28;20258;-73
2023/08/31 03:59:54;;;;;;;5.13;3.33;;;13.50;99.90;;;;;;5018826;28;20228;-73
2023/08/31 04:02:20;;;;;;;2.90;2.70;;;13.50;99.90;;;;;;5036803;28;20573;-73
2023/08/31 04:04:45;;;;;;;7.53;3.73;;;13.60;99.90;;;;;;5016975;28;20311;-73
2023/08/31 04:07:13;;;;;;;3.90;3.50;;;13.50;99.90;;;;;;5024180;28;20251;-73
2023/08/31 04:09:39;;;;;;;3.53;2.97;;;13.50;99.90;;;;;;5032203;28;21112;-72
2023/08/31 04:12:06;;;;;;;3.90;3.50;;;13.40;99.90;;;;;;5024468;28;20256;-75
2023/08/31 04:14:31;;;;;;;8.70;3.27;;;13.30;99.90;;;;;;5035929;28;20231;-73
2023/08/31 04:16:57;;;;;;;3.83;3.40;;;13.10;99.90;;;;;;5019626;28;20476;-72
2023/08/31 04:19:23;;;;;;;4.33;3.10;;;13.10;99.90;;;;;;5026058;28;20330;-72
2023/08/31 04:21:49;;;;;;;4.57;3.17;;;13.20;99.90;;;;;;5033770;28;20228;-73
2023/08/31 04:24:14;;;;;;;4.67;3.60;;;13.10;99.90;;;;;;5026117;28;20313;-72
2023/08/31 04:26:40;;;;;;;4.50;3.30;;;13.10;99.90;;;;;;5023107;28;20335;-72
2023/08/31 04:29:06;;;;;;;7.03;3.50;;;13.10;99.90;;;;;;5025507;28;20243;-73
2023/08/31 04:31:32;;;;;;;4.40;2.97;;;13.00;99.90;;;;;;5023773;28;20231;-72
2023/08/31 04:33:58;;;;;;;3.60;3.30;;;13.20;99.90;;;;;;5049766;28;20254;-72
2023/08/31 04:36:25;;;;;;;3.43;2.93;;;13.20;99.90;;;;;;5006964;28;20949;-75
2023/08/31 04:38:51;;;;;;;3.37;3.07;;;13.20;99.90;;;;;;5020015;28;20227;-72
2023/08/31 04:41:17;;;;;;;4.57;3.53;;;13.20;99.90;;;;;;5022811;28;20550;-73
2023/08/31 04:43:43;;;;;;;3.40;2.97;;;13.30;99.90;;;;;;5020537;28;20489;-73
2023/08/31 04:46:09;;;;;;;3.80;2.67;;;13.30;99.90;;;;;;5052683;28;20219;-72
2023/08/31 04:48:36;;;;;;;4.20;3.00;;;13.40;99.90;;;;;;5020766;28;20223;-73
2023/08/31 04:51:03;;;;;;;4.63;2.90;;;13.40;99.90;;;;;;5035954;28;21125;-72
2023/08/31 04:53:30;;;;;;;6.30;2.87;;;13.30;99.90;;;;;;5023776;28;20559;-73
2023/08/31 04:55:55;;;;;;;3.57;2.30;;;13.30;99.90;;;;;;5020890;28;21102;-73
2023/08/31 04:58:21;;;;;;;5.70;3.20;;;13.30;99.90;;;;;;5024097;28;20565;-73
2023/08/31 05:00:47;;;;;;;4.03;3.23;;;13.30;99.90;;;;;;5000101;28;20219;-73
2023/08/31 05:03:13;;;;;;;4.33;2.90;;;13.20;99.90;;;;;;5023069;28;20219;-73
2023/08/31 05:05:39;;;;;;;3.70;3.00;;;13.00;99.90;;;;;;5030540;28;21030;-73
2023/08/31 05:08:05;;;;;;;2.80;2.50;;;12.80;99.90;;;;;;5022568;28;20604;-73
2023/08/31 05:10:31;;;;;;;4.20;3.17;;;12.90;99.90;;;;;;5022317;28;20709;-72
2023/08/31 05:12:56;;;;;;;4.67;3.40;;;12.60;99.90;;;;;;5017560;28;20473;-72
2023/08/31 05:15:23;;;;;;;4.03;2.77;;;12.50;99.90;;;;;;5034308;28;20224;-73
2023/08/31 05:17:48;;;;;;;6.33;3.23;;;12.50;99.90;;;;;;5018818;28;20810;-72
2023/08/31 05:20:14;;;;;;;3.37;2.87;;;12.60;99.90;;;;;;5004777;28;20513;-73
2023/08/31 05:22:40;;;;;;;3.63;3.10;;;12.50;99.90;;;;;;5018372;28;20855;-73
2023/08/31 05:25:06;;;;;;;4.70;3.23;;;12.50;99.90;;;;;;5033145;28;20275;-73
2023/08/31 05:27:31;;;;;;;3.50;3.20;;;12.50;99.90;;;;;;5021003;28;20309;-73
2023/08/31 05:29:57;;;;;;;4.60;3.17;;;12.60;99.90;;;;;;5014245;28;20571;-72
2023/08/31 05:32:23;;;;;;;3.33;2.97;;;12.50;99.90;;;;;;5023261;28;20263;-72
2023/08/31 05:34:48;;;;;;;4.10;3.70;;;12.60;99.90;;;;;;5020872;28;20220;-73
2023/08/31 05:37:14;;;;;;;7.60;3.10;;;12.50;99.90;;;;;;5003835;28;20216;-74
2023/08/31 05:39:40;;;;;;;4.20;3.07;;;12.60;99.90;;;;;;5013864;28;20227;-71
2023/08/31 05:42:05;;;;;;;7.07;2.90;;;12.60;99.90;;;;;;5014227;28;20226;-70
2023/08/31 05:44:31;;;;;;;3.60;2.83;;;12.70;99.90;;;;;;5011286;28;20373;-72
2023/08/31 05:46:57;;;;;;;3.80;3.00;;;12.70;99.90;;;;;;5008877;28;20303;-72
2023/08/31 05:49:23;;;;;;;6.87;3.30;;;12.80;99.90;;;;;;5015045;28;20235;-73
2023/08/31 05:51:50;;;;;;;3.50;3.20;;;12.80;99.90;;;;;;5010272;28;20275;-72
2023/08/31 05:54:16;;;;;;;6.40;2.93;;;12.80;99.90;;;;;;5039115;28;20306;-73
2023/08/31 05:56:42;;;;;;;5.07;2.83;;;12.90;99.90;;;;;;5010620;28;20639;-72
2023/08/31 05:59:07;;;;;;;3.10;2.80;;;12.90;99.90;;;;;;5007799;28;20282;-72
2023/08/31 06:01:35;;;;;;;5.03;2.90;;;12.90;99.90;;;;;;4989030;28;20922;-73
2023/08/31 06:04:01;;;;;;;4.33;3.10;;;12.90;99.90;;;;;;4978177;28;20232;-72
2023/08/31 06:06:26;;;;;;;4.00;3.00;;;13.00;99.90;;;;;;4993951;28;20566;-72
2023/08/31 06:08:53;;;;;;;3.20;2.90;;;13.10;99.90;;;;;;4989809;28;20224;-73
2023/08/31 06:11:19;;;;;;;3.43;2.83;;;13.10;99.90;;;;;;4993861;28;20802;-73
2023/08/31 06:13:44;;;;;;;4.70;3.90;;;13.10;99.90;;;;;;4992166;28;20611;-72
2023/08/31 06:16:10;;;;;;;4.63;3.07;;;13.10;99.90;;;;;;4991750;28;20224;-72
2023/08/31 06:18:36;;;;;;;3.30;2.90;;;13.10;99.90;;;;;;4990557;28;20238;-73
2023/08/31 06:21:02;;;;;;;4.30;3.10;;;13.10;99.90;;;;;;4994671;28;20350;-73
2023/08/31 06:23:27;;;;;;;5.43;3.27;;;13.10;99.90;;;;;;5004131;28;20216;-72
2023/08/31 06:25:53;;;;;;;5.90;3.27;;;13.20;99.90;;;;;;4989539;28;20231;-72
2023/08/31 06:28:18;;;;;;;3.40;2.97;;;13.20;99.90;;;;;;4993798;28;21032;-72
2023/08/31 06:30:47;;;;;;;5.30;3.20;;;13.20;99.90;;;;;;4990220;28;20792;-72
2023/08/31 06:33:17;;;;;;;4.67;2.83;;;13.20;99.90;;;;;;4991982;28;20212;-72
2023/08/31 06:35:51;;;;;;;4.63;2.87;;;13.20;99.90;;;;;;4990179;28;20467;-73
2023/08/31 06:38:17;;;;;;;5.10;3.37;;;13.20;99.90;;;;;;5024159;28;20470;-72
2023/08/31 06:40:43;;;;;;;4.70;3.20;;;13.30;99.90;;;;;;4988923;28;20485;-72
2023/08/31 06:43:09;;;;;;;6.50;3.50;;;13.30;99.90;;;;;;5002855;28;20466;-72
2023/08/31 06:45:35;;;;;;;4.57;3.10;;;13.40;99.90;;;;;;5007831;28;20238;-72
2023/08/31 06:48:02;;;;;;;2.80;2.60;;;13.30;99.90;;;;;;4994287;28;20466;-72
2023/08/31 06:50:28;;;;;;;5.20;3.00;;;13.50;99.90;;;;;;4992952;28;20343;-72
2023/08/31 06:52:54;;;;;;;6.43;4.00;;;13.50;99.90;;;;;;4988503;28;20473;-72
2023/08/31 06:55:19;;;;;;;4.00;3.10;;;13.60;99.90;;;;;;4975692;28;20234;-73
2023/08/31 06:57:45;;;;;;;9.70;3.93;;;13.60;99.90;;;;;;5017296;28;20774;-72
2023/08/31 07:00:12;;;;;;;8.10;3.30;;;13.60;99.90;;;;;;4975443;28;20228;-72
2023/08/31 07:02:40;;;;;;;3.93;2.70;;;13.70;99.90;;;;;;4989973;28;20448;-72
2023/08/31 07:05:06;;;;;;;3.10;2.80;;;13.80;99.90;;;;;;5002467;28;20569;-72
2023/08/31 07:07:32;;;;;;;3.53;2.80;;;13.90;99.90;;;;;;5008743;28;20482;-72
2023/08/31 07:09:58;;;;;;;2.50;2.27;;;13.90;99.90;;;;;;4990275;28;20235;-73
2023/08/31 07:12:23;;;;;;;3.27;2.93;;;13.90;99.90;;;;;;5016723;28;20223;-72
2023/08/31 07:14:49;;;;;;;6.93;3.53;;;14.00;99.90;;;;;;4992901;28;20228;-72
2023/08/31 07:17:19;;;;;;;7.63;3.37;;;14.00;99.90;;;;;;5023457;28;20230;-70
2023/08/31 07:19:44;;;;;;;3.40;2.90;;;14.00;99.90;;;;;;4993352;28;20235;-73
2023/08/31 07:22:10;;;;;;;6.73;3.53;;;14.10;99.90;;;;;;5022617;28;20470;-73
2023/08/31 07:24:36;;;;;;;3.57;3.27;;;14.20;99.90;;;;;;5020530;28;20350;-72
2023/08/31 07:27:05;;;;;;;2.77;2.57;;;14.20;99.90;;;;;;4997993;28;20308;-72
2023/08/31 07:29:31;;;;;;;4.20;3.10;;;14.20;99.90;;;;;;5024768;28;20238;-73
2023/08/31 07:31:57;;;;;;;2.53;2.33;;;14.30;99.90;;;;;;4991029;28;21019;-72
2023/08/31 07:34:23;;;;;;;3.60;2.60;;;14.40;99.90;;;;;;4992667;28;20552;-72
2023/08/31 07:36:48;;;;;;;4.50;2.70;;;14.40;99.90;;;;;;4992918;28;21011;-72
2023/08/31 07:39:17;;;;;;;4.80;4.30;;;14.50;99.90;;;;;;5012852;28;20288;-73
2023/08/31 07:41:43;;;;;;;3.47;3.17;;;14.60;99.90;;;;;;5020114;28;20317;-72
2023/08/31 07:44:09;;;;;;;3.50;2.20;;;14.70;99.90;;;;;;4996509;28;20883;-73
2023/08/31 07:46:34;;;;;;;3.90;3.33;;;14.70;99.90;;;;;;5003049;28;20327;-72
2023/08/31 07:49:01;;;;;;;7.30;2.63;;;14.80;99.90;;;;;;4994010;28;20342;-73
2023/08/31 07:51:26;;;;;;;4.30;2.27;;;14.80;99.90;;;;;;5026142;28;20227;-73
2023/08/31 07:53:52;;;;;;;3.40;2.50;;;14.90;99.90;;;;;;4990782;28;20470;-72
2023/08/31 07:56:18;;;;;;;12.10;3.90;;;14.90;99.90;;;;;;5021799;28;21054;-71
2023/08/31 07:58:44;;;;;;;3.13;2.83;;;15.00;99.90;;;;;;4992731;28;20358;-72
2023/08/31 08:01:09;;;;;;;9.93;2.63;;;15.10;99.90;;;;;;4996409;28;20207;-72
2023/08/31 08:03:35;;;;;;;5.70;2.57;;;15.20;99.90;;;;;;5001504;28;21091;-72
2023/08/31 08:06:01;;;;;;;3.53;2.63;;;15.30;99.90;;;;;;5040268;28;20251;-71
2023/08/31 08:08:27;;;;;;;2.80;2.33;;;15.40;99.90;;;;;;5027626;28;20301;-73
2023/08/31 08:10:53;;;;;;;3.37;2.70;;;15.60;99.90;;;;;;5023460;28;20732;-72
2023/08/31 08:13:19;;;;;;;2.80;2.40;;;15.60;99.90;;;;;;5025449;28;20487;-73
2023/08/31 08:15:49;;;;;;;3.23;2.20;;;15.70;99.90;;;;;;5022633;28;20482;-73
2023/08/31 08:18:14;;;;;;;3.43;2.63;;;15.70;99.90;;;;;;5054739;28;20220;-70
2023/08/31 08:20:43;;;;;;;8.43;2.80;;;15.80;99.90;;;;;;5020997;28;20543;-71
2023/08/31 08:23:08;;;;;;;8.03;2.57;;;16.00;99.90;;;;;;5024379;28;20462;-72
2023/08/31 08:25:34;;;;;;;4.63;2.33;;;16.00;99.90;;;;;;5027141;27;20240;-73
2023/08/31 08:28:00;;;;;;;2.43;2.00;;;16.10;99.90;;;;;;4977204;28;20858;-72
2023/08/31 08:30:25;;;;;;;3.27;2.47;;;16.10;99.90;;;;;;4996076;28;20822;-72
2023/08/31 08:32:51;;;;;;;6.20;2.70;;;16.20;99.90;;;;;;5021351;28;20227;-72
2023/08/31 08:35:17;;;;;;;3.67;2.87;;;16.30;99.90;;;;;;5010872;28;20697;-72
2023/08/31 08:37:43;;;;;;;4.13;2.50;;;16.40;99.90;;;;;;5010283;28;20490;-72
2023/08/31 08:40:10;;;;;;;3.47;2.67;;;16.60;99.90;;;;;;5040664;28;20258;-72
2023/08/31 08:42:42;;;;;;;5.57;2.60;;;16.70;99.90;;;;;;5033592;28;20370;-72
2023/08/31 08:45:15;;;;;;;3.47;2.20;;;16.70;99.90;;;;;;5055563;27;20579;-71
2023/08/31 08:47:42;;;;;;;3.00;2.43;;;16.80;99.90;;;;;;5016980;28;20588;-72
2023/08/31 08:50:09;;;;;;;4.37;2.27;;;16.80;99.90;;;;;;5039619;28;20478;-72
2023/08/31 08:52:35;;;;;;;4.53;2.97;;;16.90;99.90;;;;;;5020810;28;20565;-72
2023/08/31 08:55:02;;;;;;;5.00;2.00;;;16.90;99.90;;;;;;5023749;28;20470;-73
2023/08/31 08:57:30;;;;;;;2.30;2.10;;;16.90;99.90;;;;;;5037384;28;20247;-73
2023/08/31 08:59:57;;;;;;;5.70;3.70;;;16.90;99.90;;;;;;5018048;28;20501;-73
2023/08/31 09:02:22;;;;;;;2.10;1.80;;;16.80;99.90;;;;;;4994655;28;20490;-73
2023/08/31 09:04:49;;;;;;;1.73;1.60;;;16.80;99.90;;;;;;5015158;28;21123;-72
2023/08/31 09:07:14;;;;;;;2.73;2.30;;;16.80;99.90;;;;;;4994982;28;20220;-73
2023/08/31 09:09:51;;;;;;;2.30;1.97;;;16.90;99.90;;;;;;4989515;28;21244;-73
2023/08/31 09:12:17;;;;;;;2.60;2.23;;;16.90;99.90;;;;;;5004775;28;21031;-73
2023/08/31 09:14:43;;;;;;;2.63;2.10;;;16.90;99.90;;;;;;5021618;28;20490;-72
2023/08/31 09:17:08;;;;;;;2.13;2.03;;;16.90;99.90;;;;;;4992310;28;20608;-73
2023/08/31 09:19:35;;;;;;;3.00;2.00;;;16.90;99.90;;;;;;4990662;28;20691;-72
2023/08/31 09:22:00;;;;;;;2.13;1.97;;;17.00;99.90;;;;;;5023301;28;20331;-71
2023/08/31 09:24:26;;;;;;;3.50;1.87;;;17.10;99.90;;;;;;4992934;28;20509;-71
2023/08/31 09:26:58;;;;;;;4.07;1.97;;;17.30;99.90;;;;;;4990439;28;20919;-70
2023/08/31 09:29:24;;;;;;;2.03;1.87;;;17.40;99.90;;;;;;4992773;28;20228;-71
2023/08/31 09:31:50;;;;;;;4.80;2.00;;;17.40;99.90;;;;;;4992073;28;20586;-72
2023/08/31 09:34:17;;;;;;;2.27;1.67;;;17.50;99.90;;;;;;5002544;28;20935;-72
2023/08/31 09:36:43;;;;;;;1.90;1.60;;;17.60;99.90;;;;;;5006413;28;20219;-72
2023/08/31 09:39:11;;;;;;;3.53;1.77;;;17.70;99.90;;;;;;4994790;28;20563;-72
2023/08/31 09:41:55;;;;;;;3.23;1.90;;;17.90;99.90;;;;;;5009409;28;20488;-72
2023/08/31 09:44:21;;;;;;;1.70;1.60;;;18.00;99.90;;;;;;5014776;28;20485;-72
2023/08/31 09:46:47;;;;;;;4.50;1.90;;;18.10;99.90;;;;;;5001108;28;20609;-70
2023/08/31 09:49:15;;;;;;;2.50;2.00;;;18.30;99.90;;;;;;5000742;28;20470;-72
2023/08/31 09:51:48;;;;;;;1.90;1.70;;;18.40;99.90;;;;;;4998037;28;20568;-72
2023/08/31 09:54:16;;;;;;;1.73;1.60;;;18.40;99.90;;;;;;4999659;28;20529;-72
2023/08/31 09:56:44;;;;;;;2.03;1.80;;;18.40;99.90;;;;;;5002799;28;20608;-72
2023/08/31 09:59:11;;;;;;;3.73;2.00;;;18.20;99.90;;;;;;5000522;28;20478;-72
2023/08/31 10:01:37;;;;;;;3.13;2.20;;;18.30;99.90;;;;;;5014378;28;20562;-72
2023/08/31 10:04:05;;;;;;;2.93;1.53;;;18.40;99.90;;;;;;5028595;28;20470;-71
2023/08/31 10:06:31;;;;;;;2.17;1.90;;;18.30;99.90;;;;;;5027147;28;20480;-72
2023/08/31 10:08:58;;;;;;;2.30;1.80;;;18.40;99.90;;;;;;4998676;28;20536;-71
2023/08/31 10:11:27;;;;;;;3.40;1.70;;;18.50;99.90;;;;;;4999189;28;20466;-72
2023/08/31 10:13:54;;;;;;;2.90;1.80;;;18.60;99.90;;;;;;5001033;28;20477;-72
2023/08/31 10:16:21;;;;;;;4.40;2.30;;;18.90;99.90;;;;;;5015923;28;20470;-70
2023/08/31 10:18:48;;;;;;;1.93;1.50;;;19.10;99.90;;;;;;5000533;28;21127;-71
2023/08/31 10:21:17;;;;;;;1.80;1.70;;;19.20;99.90;;;;;;5000399;28;20466;-72
2023/08/31 10:23:46;;;;;;;2.00;1.80;;;19.30;99.90;;;;;;5000556;28;20466;-72
2023/08/31 10:26:22;;;;;;;1.73;1.63;;;19.20;99.90;;;;;;4998862;28;20523;-72
2023/08/31 10:28:48;;;;;;;3.57;1.90;;;19.40;99.90;;;;;;5000072;28;20481;-71
2023/08/31 10:31:17;;;;;;;4.93;1.50;;;19.70;99.90;;;;;;4998745;28;20584;-71
2023/08/31 10:33:46;;;;;;;1.40;1.30;;;19.80;99.90;;;;;;4999856;28;20250;-72
2023/08/31 10:36:16;;;;;;;2.10;1.63;;;19.90;99.90;;;;;;4998025;28;20960;-71
2023/08/31 10:38:46;;;;;;;1.83;1.63;;;19.90;99.90;;;;;;5013294;28;20486;-72
2023/08/31 10:41:12;;;;;;;4.10;1.97;;;20.10;99.90;;;;;;4982522;28;20473;-72
2023/08/31 10:43:50;;;;;;;2.93;1.70;;;20.20;99.90;;;;;;5008700;28;20470;-73
2023/08/31 10:46:35;;;;;;;1.73;1.20;;;20.10;99.90;;;;;;4999148;28;20608;-71
2023/08/31 10:49:10;;;;;;;2.53;1.90;;;20.30;99.90;;;;;;5000772;28;20486;-73
2023/08/31 10:51:37;;;;;;;2.03;1.70;;;20.50;99.90;;;;;;4999220;28;21208;-72
2023/08/31 10:54:14;;;;;;;1.60;1.50;;;20.50;99.90;;;;;;5016348;28;20543;-72
2023/08/31 10:56:53;;;;;;;2.10;1.43;;;20.60;99.90;;;;;;5009242;28;20480;-71
2023/08/31 10:59:20;;;;;;;1.30;1.20;;;20.60;99.90;;;;;;4999120;28;21272;-75
2023/08/31 11:02:04;;;;;;;1.70;1.60;;;20.60;99.90;;;;;;4998460;28;20477;-73
2023/08/31 11:04:30;;;;;;;3.40;1.70;;;20.60;99.90;;;;;;4998804;28;20523;-71
2023/08/31 11:07:18;;;;;;;2.03;1.80;;;20.70;99.90;;;;;;4998154;28;20473;-73
2023/08/31 11:09:46;;;;;;;2.93;1.87;;;20.80;99.90;;;;;;4997638;28;20484;-72
2023/08/31 11:12:13;;;;;;;2.70;1.40;;;21.10;99.90;;;;;;5017247;28;20466;-73
2023/08/31 11:14:39;;;;;;;1.70;1.60;;;21.10;99.90;;;;;;5026476;28;20609;-72
2023/08/31 11:17:05;;;;;;;1.97;1.77;;;21.00;99.90;;;;;;4998402;28;20462;-73
2023/08/31 11:19:35;;;;;;;1.67;1.57;;;21.20;99.90;;;;;;5011761;28;20512;-71
2023/08/31 11:22:02;;;;;;;3.33;1.60;;;21.20;99.90;;;;;;5000757;28;21301;-73
2023/08/31 11:24:32;;;;;;;1.87;1.40;;;21.60;99.90;;;;;;4998269;28;21095;-72
2023/08/31 11:26:58;;;;;;;2.10;1.40;;;21.60;99.90;;;;;;5021363;28;20492;-71
2023/08/31 11:29:24;;;;;;;2.13;1.83;;;21.60;99.90;;;;;;5011810;28;21054;-73
2023/08/31 11:31:49;;;;;;;1.93;1.60;;;21.70;99.90;;;;;;5005028;28;20228;-72
2023/08/31 11:34:16;;;;;;;3.27;1.87;;;21.80;99.90;;;;;;4997698;28;20306;-73
2023/08/31 11:36:43;;;;;;;1.80;1.70;;;22.00;99.90;;;;;;5000111;28;20479;-73
2023/08/31 11:39:10;;;;;;;1.90;1.57;;;21.80;99.90;;;;;;5010418;28;20553;-72
2023/08/31 11:41:41;;;;;;;3.03;1.67;;;21.70;99.90;;;;;;4979589;28;20501;-72
2023/08/31 11:44:08;;;;;;;2.50;1.53;;;21.40;99.90;;;;;;5026599;28;21169;-73
2023/08/31 11:46:39;;;;;;;2.57;1.80;;;21.20;99.90;;;;;;5028972;28;20550;-72
2023/08/31 11:49:05;;;;;;;3.37;1.67;;;21.10;99.90;;;;;;5000106;28;20545;-71
2023/08/31 11:51:33;;;;;;;2.33;2.13;;;21.00;99.90;;;;;;5025258;28;20470;-72
2023/08/31 11:54:02;;;;;;;1.63;1.53;;;21.00;99.90;;;;;;5011699;28;20481;-73
2023/08/31 11:56:39;;;;;;;1.80;1.47;;;20.90;99.90;;;;;;5028452;28;20462;-73
2023/08/31 11:59:12;;;;;;;3.90;2.70;;;20.60;99.90;;;;;;5002989;28;20473;-73
2023/08/31 12:01:39;;;;;;;2.03;1.80;;;20.60;99.90;;;;;;5028700;28;20514;-73
2023/08/31 12:04:25;;;;;;;1.97;1.83;;;20.50;99.90;;;;;;5001771;28;20589;-72
2023/08/31 12:06:53;;;;;;;2.07;1.83;;;20.40;99.90;;;;;;4999776;28;20991;-73
2023/08/31 12:09:20;;;;;;;2.23;1.30;;;20.40;99.90;;;;;;4983878;28;20466;-72
2023/08/31 12:11:52;;;;;;;3.53;1.90;;;20.40;99.90;;;;;;5002350;28;20555;-72
2023/08/31 12:14:24;;;;;;;1.43;1.33;;;20.50;99.90;;;;;;5000655;28;20611;-72
2023/08/31 12:16:51;;;;;;;3.87;2.30;;;20.70;99.90;;;;;;5001925;28;20983;-72
2023/08/31 12:19:18;;;;;;;1.73;1.63;;;21.00;99.90;;;;;;5001411;28;21131;-72
2023/08/31 12:21:46;;;;;;;3.50;1.73;;;20.90;99.90;;;;;;5004024;28;21055;-72
2023/08/31 12:24:12;;;;;;;4.57;2.73;;;20.80;99.90;;;;;;5000239;28;20485;-72
2023/08/31 12:26:38;;;;;;;4.20;2.27;;;20.70;99.90;;;;;;4999008;28;20551;-72
2023/08/31 12:29:04;;;;;;;2.80;2.13;;;20.50;99.90;;;;;;5031400;28;20473;-72
2023/08/31 12:31:32;;;;;;;2.30;1.90;;;20.40;99.90;;;;;;5001887;28;20463;-72
2023/08/31 12:33:58;;;;;;;2.20;1.63;;;20.30;99.90;;;;;;5029637;28;20219;-73
2023/08/31 12:36:23;;;;;;;3.20;1.77;;;20.30;99.90;;;;;;5001328;28;20567;-71
2023/08/31 12:38:49;;;;;;;3.37;1.87;;;20.50;99.90;;;;;;5002948;28;20482;-73
2023/08/31 12:41:15;;;;;;;3.90;1.53;;;20.40;99.90;;;;;;4994169;28;20230;-72
2023/08/31 12:43:40;;;;;;;4.67;2.23;;;20.40;99.90;;;;;;5000061;28;20212;-73
2023/08/31 12:46:06;;;;;;;3.10;2.03;;;20.60;99.90;;;;;;5014306;28;20830;-72
2023/08/31 12:48:32;;;;;;;2.23;1.57;;;20.70;99.90;;;;;;4985344;28;20807;-72